sensor_id;sensor_type;location;lat;lon;timestamp;pressure;altitude;pressure_sealevel;temperature;humidity
63663;BME280;49815;51.618;0.336;2022-10-17T00:00:16;100257.58;;;15.83;59.39
63663;BME280;49815;51.618;0.336;2022-10-17T00:02:41;100256.62;;;16.04;60.00
63663;BME280;49815;51.618;0.336;2022-10-17T00:05:07;100257.84;;;16.18;59.95
63663;BME280;49815;51.618;0.336;2022-10-17T00:07:32;100255.10;;;15.90;60.39
63663;BME280;49815;51.618;0.336;2022-10-17T00:09:57;100244.02;;;16.59;58.96
63663;BME280;49815;51.618;0.336;2022-10-17T00:12:23;100233.18;;;16.56;59.11
63663;BME280;49815;51.618;0.336;2022-10-17T00:14:48;100229.29;;;16.25;59.72
63663;BME280;49815;51.618;0.336;2022-10-17T00:17:13;100233.30;;;16.63;59.62
63663;BME280;49815;51.618;0.336;2022-10-17T00:19:39;100231.60;;;16.54;58.99
63663;BME280;49815;51.618;0.336;2022-10-17T00:22:04;100229.73;;;16.50;59.45
63663;BME280;49815;51.618;0.336;2022-10-17T00:24:30;100238.46;;;16.05;60.32
63663;BME280;49815;51.618;0.336;2022-10-17T00:26:55;100247.02;;;15.94;60.75
63663;BME280;49815;51.618;0.336;2022-10-17T00:29:20;100254.84;;;15.94;60.70
63663;BME280;49815;51.618;0.336;2022-10-17T00:31:45;100247.14;;;16.58;60.79
63663;BME280;49815;51.618;0.336;2022-10-17T00:34:10;100241.71;;;16.18;60.76
63663;BME280;49815;51.618;0.336;2022-10-17T00:36:36;100245.25;;;16.07;61.29
63663;BME280;49815;51.618;0.336;2022-10-17T00:39:02;100243.43;;;16.31;60.08
63663;BME280;49815;51.618;0.336;2022-10-17T00:41:29;100235.14;;;16.70;58.82
63663;BME280;49815;51.618;0.336;2022-10-17T00:43:55;100241.31;;;16.78;58.79
63663;BME280;49815;51.618;0.336;2022-10-17T00:46:17;100252.92;;;16.41;58.69
63663;BME280;49815;51.618;0.336;2022-10-17T00:48:43;100258.22;;;16.23;60.01
63663;BME280;49815;51.618;0.336;2022-10-17T00:51:08;100254.32;;;15.97;60.18
63663;BME280;49815;51.618;0.336;2022-10-17T00:53:33;100257.93;;;16.12;60.21
63663;BME280;49815;51.618;0.336;2022-10-17T00:55:58;100269.08;;;15.79;61.35
63663;BME280;49815;51.618;0.336;2022-10-17T00:58:23;100276.85;;;15.88;60.54
63663;BME280;49815;51.618;0.336;2022-10-17T01:00:48;100288.35;;;16.22;60.76
63663;BME280;49815;51.618;0.336;2022-10-17T01:03:15;100293.74;;;15.70;62.24
63663;BME280;49815;51.618;0.336;2022-10-17T01:05:40;100297.28;;;15.93;61.17
63663;BME280;49815;51.618;0.336;2022-10-17T01:08:07;100302.53;;;15.84;62.04
63663;BME280;49815;51.618;0.336;2022-10-17T01:10:44;100300.68;;;15.92;62.37
63663;BME280;49815;51.618;0.336;2022-10-17T01:13:05;100302.15;;;15.96;61.42
63663;BME280;49815;51.618;0.336;2022-10-17T01:15:31;100304.05;;;15.93;61.38
63663;BME280;49815;51.618;0.336;2022-10-17T01:17:57;100305.15;;;15.91;62.37
63663;BME280;49815;51.618;0.336;2022-10-17T01:22:41;100310.08;;;15.66;62.67
63663;BME280;49815;51.618;0.336;2022-10-17T01:25:18;100313.67;;;15.64;62.54
63663;BME280;49815;51.618;0.336;2022-10-17T01:27:42;100315.48;;;15.89;62.20
63663;BME280;49815;51.618;0.336;2022-10-17T01:30:08;100313.67;;;15.91;61.97
63663;BME280;49815;51.618;0.336;2022-10-17T01:32:23;100306.41;;;15.66;61.58
63663;BME280;49815;51.618;0.336;2022-10-17T01:34:52;100301.52;;;15.59;62.02
63663;BME280;49815;51.618;0.336;2022-10-17T01:37:17;100298.09;;;15.24;63.13
63663;BME280;49815;51.618;0.336;2022-10-17T01:39:41;100293.21;;;15.16;62.62
63663;BME280;49815;51.618;0.336;2022-10-17T01:42:09;100294.57;;;15.43;62.36
63663;BME280;49815;51.618;0.336;2022-10-17T01:44:31;100296.98;;;15.39;62.18
63663;BME280;49815;51.618;0.336;2022-10-17T01:46:56;100290.85;;;15.97;60.82
63663;BME280;49815;51.618;0.336;2022-10-17T01:49:22;100301.47;;;15.08;62.80
63663;BME280;49815;51.618;0.336;2022-10-17T01:51:46;100312.54;;;15.37;62.04
63663;BME280;49815;51.618;0.336;2022-10-17T01:54:11;100312.28;;;14.70;62.75
63663;BME280;49815;51.618;0.336;2022-10-17T01:56:34;100312.21;;;15.19;62.13
63663;BME280;49815;51.618;0.336;2022-10-17T01:59:01;100309.88;;;15.74;60.76
63663;BME280;49815;51.618;0.336;2022-10-17T02:01:25;100311.55;;;15.24;61.99
63663;BME280;49815;51.618;0.336;2022-10-17T02:03:50;100313.49;;;14.91;63.35
63663;BME280;49815;51.618;0.336;2022-10-17T02:06:15;100326.59;;;15.23;62.64
63663;BME280;49815;51.618;0.336;2022-10-17T02:08:42;100332.89;;;15.00;63.03
63663;BME280;49815;51.618;0.336;2022-10-17T02:11:10;100335.23;;;15.15;63.01
63663;BME280;49815;51.618;0.336;2022-10-17T02:13:42;100333.97;;;14.91;62.22
63663;BME280;49815;51.618;0.336;2022-10-17T02:16:06;100338.86;;;14.94;63.42
63663;BME280;49815;51.618;0.336;2022-10-17T02:18:34;100345.97;;;14.91;63.55
63663;BME280;49815;51.618;0.336;2022-10-17T02:20:52;100347.29;;;15.17;62.77
63663;BME280;49815;51.618;0.336;2022-10-17T02:23:19;100356.10;;;14.87;64.04
63663;BME280;49815;51.618;0.336;2022-10-17T02:25:41;100348.85;;;15.15;62.65
63663;BME280;49815;51.618;0.336;2022-10-17T02:28:12;100358.13;;;14.55;62.78
63663;BME280;49815;51.618;0.336;2022-10-17T02:30:34;100347.74;;;15.12;62.54
63663;BME280;49815;51.618;0.336;2022-10-17T02:32:57;100343.15;;;14.42;64.17
63663;BME280;49815;51.618;0.336;2022-10-17T02:35:21;100347.67;;;14.73;62.81
63663;BME280;49815;51.618;0.336;2022-10-17T02:37:46;100345.28;;;14.76;62.66
63663;BME280;49815;51.618;0.336;2022-10-17T02:40:12;100345.51;;;14.96;62.90
63663;BME280;49815;51.618;0.336;2022-10-17T02:42:37;100350.00;;;14.95;61.70
63663;BME280;49815;51.618;0.336;2022-10-17T02:45:02;100349.70;;;14.68;62.34
63663;BME280;49815;51.618;0.336;2022-10-17T02:47:31;100359.32;;;14.89;62.91
63663;BME280;49815;51.618;0.336;2022-10-17T02:49:54;100355.30;;;14.58;63.69
63663;BME280;49815;51.618;0.336;2022-10-17T02:52:23;100369.18;;;14.65;63.40
63663;BME280;49815;51.618;0.336;2022-10-17T02:54:46;100370.92;;;14.57;64.20
63663;BME280;49815;51.618;0.336;2022-10-17T02:57:13;100363.81;;;15.12;62.44
63663;BME280;49815;51.618;0.336;2022-10-17T02:59:34;100373.13;;;15.07;61.47
63663;BME280;49815;51.618;0.336;2022-10-17T03:02:02;100375.36;;;14.89;61.54
63663;BME280;49815;51.618;0.336;2022-10-17T03:04:23;100377.92;;;14.63;62.09
63663;BME280;49815;51.618;0.336;2022-10-17T03:06:49;100357.52;;;14.56;62.31
63663;BME280;49815;51.618;0.336;2022-10-17T03:09:15;100351.90;;;15.48;61.46
63663;BME280;49815;51.618;0.336;2022-10-17T03:11:39;100361.25;;;15.60;61.12
63663;BME280;49815;51.618;0.336;2022-10-17T03:14:05;100364.24;;;15.23;61.47
63663;BME280;49815;51.618;0.336;2022-10-17T03:16:30;100381.77;;;14.82;61.70
63663;BME280;49815;51.618;0.336;2022-10-17T03:18:56;100372.52;;;14.46;62.77
63663;BME280;49815;51.618;0.336;2022-10-17T03:21:21;100360.08;;;15.04;61.40
63663;BME280;49815;51.618;0.336;2022-10-17T03:23:46;100357.70;;;15.49;60.37
63663;BME280;49815;51.618;0.336;2022-10-17T03:26:11;100360.73;;;14.70;61.45
63663;BME280;49815;51.618;0.336;2022-10-17T03:28:36;100349.82;;;15.91;59.46
63663;BME280;49815;51.618;0.336;2022-10-17T03:31:06;100345.20;;;15.87;59.35
63663;BME280;49815;51.618;0.336;2022-10-17T03:33:27;100343.85;;;15.39;59.15
63663;BME280;49815;51.618;0.336;2022-10-17T03:35:52;100334.37;;;15.70;58.71
63663;BME280;49815;51.618;0.336;2022-10-17T03:38:17;100340.85;;;14.95;59.13
63663;BME280;49815;51.618;0.336;2022-10-17T03:40:42;100343.47;;;16.12;58.24
63663;BME280;49815;51.618;0.336;2022-10-17T03:43:08;100354.66;;;14.64;60.31
63663;BME280;49815;51.618;0.336;2022-10-17T03:45:33;100349.01;;;15.49;58.99
63663;BME280;49815;51.618;0.336;2022-10-17T03:47:58;100355.43;;;15.52;59.48
63663;BME280;49815;51.618;0.336;2022-10-17T03:50:24;100365.87;;;15.75;59.01
63663;BME280;49815;51.618;0.336;2022-10-17T03:52:50;100367.34;;;15.36;59.26
63663;BME280;49815;51.618;0.336;2022-10-17T03:55:16;100373.94;;;15.47;59.11
63663;BME280;49815;51.618;0.336;2022-10-17T03:57:41;100366.52;;;15.22;60.06
63663;BME280;49815;51.618;0.336;2022-10-17T04:00:07;100366.25;;;15.93;58.30
63663;BME280;49815;51.618;0.336;2022-10-17T04:02:31;100368.18;;;15.99;58.33
63663;BME280;49815;51.618;0.336;2022-10-17T04:04:57;100370.54;;;15.94;57.41
63663;BME280;49815;51.618;0.336;2022-10-17T04:07:23;100376.52;;;15.87;58.68
63663;BME280;49815;51.618;0.336;2022-10-17T04:09:48;100369.16;;;15.74;59.08
63663;BME280;49815;51.618;0.336;2022-10-17T04:12:13;100378.69;;;15.92;58.66
63663;BME280;49815;51.618;0.336;2022-10-17T04:14:39;100381.15;;;15.98;58.49
63663;BME280;49815;51.618;0.336;2022-10-17T04:17:04;100383.52;;;15.27;58.89
63663;BME280;49815;51.618;0.336;2022-10-17T04:19:31;100393.92;;;15.56;58.26
63663;BME280;49815;51.618;0.336;2022-10-17T04:21:55;100397.82;;;15.66;58.58
63663;BME280;49815;51.618;0.336;2022-10-17T04:24:20;100405.83;;;15.93;58.31
63663;BME280;49815;51.618;0.336;2022-10-17T04:26:48;100410.11;;;15.69;58.45
63663;BME280;49815;51.618;0.336;2022-10-17T04:29:11;100407.81;;;15.41;59.54
63663;BME280;49815;51.618;0.336;2022-10-17T04:31:37;100398.50;;;16.13;57.96
63663;BME280;49815;51.618;0.336;2022-10-17T04:34:02;100401.70;;;15.73;58.77
63663;BME280;49815;51.618;0.336;2022-10-17T04:36:27;100410.33;;;15.78;58.08
63663;BME280;49815;51.618;0.336;2022-10-17T04:38:52;100415.95;;;15.69;59.36
63663;BME280;49815;51.618;0.336;2022-10-17T04:41:18;100424.08;;;15.65;58.88
63663;BME280;49815;51.618;0.336;2022-10-17T04:43:43;100415.93;;;16.03;58.10
63663;BME280;49815;51.618;0.336;2022-10-17T04:46:10;100422.24;;;15.70;58.53
63663;BME280;49815;51.618;0.336;2022-10-17T04:48:34;100409.59;;;15.54;58.49
63663;BME280;49815;51.618;0.336;2022-10-17T04:51:01;100410.48;;;15.58;58.78
63663;BME280;49815;51.618;0.336;2022-10-17T04:53:25;100409.08;;;15.18;59.12
63663;BME280;49815;51.618;0.336;2022-10-17T04:55:50;100405.64;;;15.74;58.59
63663;BME280;49815;51.618;0.336;2022-10-17T04:58:15;100409.31;;;15.80;57.85
63663;BME280;49815;51.618;0.336;2022-10-17T05:00:40;100407.96;;;16.07;57.32
63663;BME280;49815;51.618;0.336;2022-10-17T05:03:05;100411.83;;;15.88;57.81
63663;BME280;49815;51.618;0.336;2022-10-17T05:05:31;100406.63;;;15.60;58.30
63663;BME280;49815;51.618;0.336;2022-10-17T05:07:56;100404.26;;;16.25;57.39
63663;BME280;49815;51.618;0.336;2022-10-17T05:10:21;100404.90;;;16.45;56.71
63663;BME280;49815;51.618;0.336;2022-10-17T05:12:47;100403.26;;;15.79;57.61
63663;BME280;49815;51.618;0.336;2022-10-17T05:15:12;100412.99;;;15.60;58.61
63663;BME280;49815;51.618;0.336;2022-10-17T05:17:37;100423.37;;;15.66;58.61
63663;BME280;49815;51.618;0.336;2022-10-17T05:20:03;100429.59;;;15.05;59.48
63663;BME280;49815;51.618;0.336;2022-10-17T05:22:28;100434.72;;;15.70;58.76
63663;BME280;49815;51.618;0.336;2022-10-17T05:24:53;100438.82;;;15.12;58.93
63663;BME280;49815;51.618;0.336;2022-10-17T05:27:18;100448.79;;;15.63;59.02
63663;BME280;49815;51.618;0.336;2022-10-17T05:29:43;100449.86;;;15.33;59.50
63663;BME280;49815;51.618;0.336;2022-10-17T05:32:09;100460.01;;;15.43;59.25
63663;BME280;49815;51.618;0.336;2022-10-17T05:34:35;100471.45;;;14.69;60.07
63663;BME280;49815;51.618;0.336;2022-10-17T05:37:00;100487.43;;;15.61;60.08
63663;BME280;49815;51.618;0.336;2022-10-17T05:39:25;100493.16;;;15.39;59.40
63663;BME280;49815;51.618;0.336;2022-10-17T05:41:50;100504.43;;;14.74;60.92
63663;BME280;49815;51.618;0.336;2022-10-17T05:44:16;100514.07;;;15.15;60.14
63663;BME280;49815;51.618;0.336;2022-10-17T05:46:41;100515.33;;;15.12;60.27
63663;BME280;49815;51.618;0.336;2022-10-17T05:49:08;100521.61;;;15.03;60.69
63663;BME280;49815;51.618;0.336;2022-10-17T05:51:32;100524.44;;;14.80;61.12
63663;BME280;49815;51.618;0.336;2022-10-17T05:53:57;100526.43;;;14.79;61.06
63663;BME280;49815;51.618;0.336;2022-10-17T05:56:22;100530.77;;;15.53;60.84
63663;BME280;49815;51.618;0.336;2022-10-17T05:58:48;100530.78;;;15.38;60.01
63663;BME280;49815;51.618;0.336;2022-10-17T06:01:14;100535.06;;;15.29;60.13
63663;BME280;49815;51.618;0.336;2022-10-17T06:03:39;100533.39;;;15.08;60.69
63663;BME280;49815;51.618;0.336;2022-10-17T06:06:06;100531.60;;;15.92;58.97
63663;BME280;49815;51.618;0.336;2022-10-17T06:08:29;100535.28;;;15.63;59.06
63663;BME280;49815;51.618;0.336;2022-10-17T06:10:55;100543.66;;;15.68;59.06
63663;BME280;49815;51.618;0.336;2022-10-17T06:13:20;100544.06;;;15.63;59.63
63663;BME280;49815;51.618;0.336;2022-10-17T06:15:46;100558.57;;;15.69;59.06
63663;BME280;49815;51.618;0.336;2022-10-17T06:18:11;100561.79;;;15.65;59.70
63663;BME280;49815;51.618;0.336;2022-10-17T06:20:37;100570.63;;;15.36;60.28
63663;BME280;49815;51.618;0.336;2022-10-17T06:23:03;100578.43;;;15.12;60.77
63663;BME280;49815;51.618;0.336;2022-10-17T06:25:29;100582.14;;;14.58;61.80
63663;BME280;49815;51.618;0.336;2022-10-17T06:27:53;100587.91;;;15.13;61.53
63663;BME280;49815;51.618;0.336;2022-10-17T06:30:18;100590.55;;;15.23;61.25
63663;BME280;49815;51.618;0.336;2022-10-17T06:32:43;100591.69;;;14.53;62.10
63663;BME280;49815;51.618;0.336;2022-10-17T06:35:08;100597.46;;;14.84;62.19
63663;BME280;49815;51.618;0.336;2022-10-17T06:37:34;100606.83;;;14.90;62.38
63663;BME280;49815;51.618;0.336;2022-10-17T06:39:59;100612.16;;;14.76;62.76
63663;BME280;49815;51.618;0.336;2022-10-17T06:42:25;100609.79;;;15.09;61.97
63663;BME280;49815;51.618;0.336;2022-10-17T06:44:50;100607.05;;;14.75;61.95
63663;BME280;49815;51.618;0.336;2022-10-17T06:47:15;100610.55;;;15.33;61.31
63663;BME280;49815;51.618;0.336;2022-10-17T06:49:40;100616.98;;;14.83;61.68
63663;BME280;49815;51.618;0.336;2022-10-17T06:52:05;100624.10;;;14.94;61.42
63663;BME280;49815;51.618;0.336;2022-10-17T06:54:31;100632.67;;;15.43;61.01
63663;BME280;49815;51.618;0.336;2022-10-17T06:56:56;100639.36;;;15.03;61.39
63663;BME280;49815;51.618;0.336;2022-10-17T06:59:22;100639.07;;;15.53;60.88
63663;BME280;49815;51.618;0.336;2022-10-17T07:01:47;100639.18;;;14.78;61.85
63663;BME280;49815;51.618;0.336;2022-10-17T07:04:13;100641.77;;;15.35;60.77
63663;BME280;49815;51.618;0.336;2022-10-17T07:06:38;100653.13;;;15.50;60.44
63663;BME280;49815;51.618;0.336;2022-10-17T07:09:04;100652.85;;;15.65;60.58
63663;BME280;49815;51.618;0.336;2022-10-17T07:11:29;100655.00;;;15.86;59.87
63663;BME280;49815;51.618;0.336;2022-10-17T07:13:54;100657.53;;;15.74;60.01
63663;BME280;49815;51.618;0.336;2022-10-17T07:16:19;100661.34;;;15.74;59.90
63663;BME280;49815;51.618;0.336;2022-10-17T07:18:48;100668.72;;;15.65;60.02
63663;BME280;49815;51.618;0.336;2022-10-17T07:21:11;100676.51;;;15.74;59.47
63663;BME280;49815;51.618;0.336;2022-10-17T07:23:36;100683.12;;;15.75;59.77
63663;BME280;49815;51.618;0.336;2022-10-17T07:26:03;100685.65;;;15.83;59.68
63663;BME280;49815;51.618;0.336;2022-10-17T07:28:27;100683.13;;;16.09;59.48
63663;BME280;49815;51.618;0.336;2022-10-17T07:30:52;100678.84;;;16.04;58.43
63663;BME280;49815;51.618;0.336;2022-10-17T07:33:17;100680.80;;;16.10;58.99
63663;BME280;49815;51.618;0.336;2022-10-17T07:35:42;100685.07;;;16.29;57.88
63663;BME280;49815;51.618;0.336;2022-10-17T07:38:07;100698.00;;;15.95;58.44
63663;BME280;49815;51.618;0.336;2022-10-17T07:40:32;100704.18;;;16.24;57.90
63663;BME280;49815;51.618;0.336;2022-10-17T07:42:59;100711.56;;;15.83;58.84
63663;BME280;49815;51.618;0.336;2022-10-17T07:45:24;100713.28;;;16.44;57.82
63663;BME280;49815;51.618;0.336;2022-10-17T07:47:49;100725.25;;;16.06;58.05
63663;BME280;49815;51.618;0.336;2022-10-17T07:50:14;100738.70;;;15.86;58.81
63663;BME280;49815;51.618;0.336;2022-10-17T07:52:39;100755.36;;;15.94;59.80
63663;BME280;49815;51.618;0.336;2022-10-17T07:55:06;100752.25;;;15.73;59.84
63663;BME280;49815;51.618;0.336;2022-10-17T07:57:30;100758.89;;;16.09;59.14
63663;BME280;49815;51.618;0.336;2022-10-17T07:59:55;100765.08;;;16.65;57.56
63663;BME280;49815;51.618;0.336;2022-10-17T08:02:23;100764.29;;;15.55;59.77
63663;BME280;49815;51.618;0.336;2022-10-17T08:04:46;100769.50;;;15.37;59.61
63663;BME280;49815;51.618;0.336;2022-10-17T08:07:12;100771.64;;;15.91;58.37
63663;BME280;49815;51.618;0.336;2022-10-17T08:09:37;100772.84;;;16.05;57.99
63663;BME280;49815;51.618;0.336;2022-10-17T08:12:02;100778.01;;;16.41;57.21
63663;BME280;49815;51.618;0.336;2022-10-17T08:14:28;100786.11;;;16.88;56.32
63663;BME280;49815;51.618;0.336;2022-10-17T08:16:54;100781.43;;;16.44;57.40
63663;BME280;49815;51.618;0.336;2022-10-17T08:19:18;100785.62;;;16.25;57.12
63663;BME280;49815;51.618;0.336;2022-10-17T08:21:44;100792.16;;;16.16;57.01
63663;BME280;49815;51.618;0.336;2022-10-17T08:24:09;100801.80;;;16.59;56.39
63663;BME280;49815;51.618;0.336;2022-10-17T08:26:35;100803.15;;;16.07;56.57
63663;BME280;49815;51.618;0.336;2022-10-17T08:29:00;100814.29;;;16.80;56.05
63663;BME280;49815;51.618;0.336;2022-10-17T08:31:26;100826.32;;;16.23;56.92
63663;BME280;49815;51.618;0.336;2022-10-17T08:33:51;100827.16;;;16.06;56.63
63663;BME280;49815;51.618;0.336;2022-10-17T08:36:18;100820.38;;;16.20;56.45
63663;BME280;49815;51.618;0.336;2022-10-17T08:38:42;100842.95;;;16.13;56.55
63663;BME280;49815;51.618;0.336;2022-10-17T08:41:13;100845.24;;;16.28;56.78
63663;BME280;49815;51.618;0.336;2022-10-17T08:43:45;100839.56;;;15.74;57.23
63663;BME280;49815;51.618;0.336;2022-10-17T08:45:59;100847.98;;;15.90;57.37
63663;BME280;49815;51.618;0.336;2022-10-17T08:48:25;100847.05;;;15.77;58.13
63663;BME280;49815;51.618;0.336;2022-10-17T08:50:52;100849.09;;;15.76;57.25
63663;BME280;49815;51.618;0.336;2022-10-17T08:53:18;100857.33;;;15.44;58.26
63663;BME280;49815;51.618;0.336;2022-10-17T08:55:41;100861.20;;;16.06;56.80
63663;BME280;49815;51.618;0.336;2022-10-17T08:58:11;100865.41;;;16.16;57.09
63663;BME280;49815;51.618;0.336;2022-10-17T09:00:31;100865.55;;;16.38;56.70
63663;BME280;49815;51.618;0.336;2022-10-17T09:03:05;100868.25;;;16.08;56.77
63663;BME280;49815;51.618;0.336;2022-10-17T09:05:27;100875.16;;;16.15;56.84
63663;BME280;49815;51.618;0.336;2022-10-17T09:07:50;100875.94;;;16.75;55.63
63663;BME280;49815;51.618;0.336;2022-10-17T09:10:17;100886.77;;;16.36;55.97
63663;BME280;49815;51.618;0.336;2022-10-17T09:12:40;100887.24;;;15.94;55.56
63663;BME280;49815;51.618;0.336;2022-10-17T09:17:37;100885.12;;;17.33;54.14
63663;BME280;49815;51.618;0.336;2022-10-17T09:19:59;100890.71;;;17.68;53.07
63663;BME280;49815;51.618;0.336;2022-10-17T09:22:22;100893.99;;;17.31;53.56
63663;BME280;49815;51.618;0.336;2022-10-17T09:24:45;100895.59;;;17.28;53.54
63663;BME280;49815;51.618;0.336;2022-10-17T09:27:18;100896.72;;;16.77;53.99
63663;BME280;49815;51.618;0.336;2022-10-17T09:29:33;100904.43;;;16.33;55.04
63663;BME280;49815;51.618;0.336;2022-10-17T09:32:01;100902.68;;;16.35;55.51
63663;BME280;49815;51.618;0.336;2022-10-17T09:34:26;100906.15;;;16.62;54.92
63663;BME280;49815;51.618;0.336;2022-10-17T09:36:49;100912.64;;;16.21;55.97
63663;BME280;49815;51.618;0.336;2022-10-17T09:39:17;100915.16;;;16.56;54.06
63663;BME280;49815;51.618;0.336;2022-10-17T09:41:40;100919.92;;;16.53;55.03
63663;BME280;49815;51.618;0.336;2022-10-17T09:44:14;100923.54;;;16.96;52.76
63663;BME280;49815;51.618;0.336;2022-10-17T09:46:35;100930.59;;;17.80;52.84
63663;BME280;49815;51.618;0.336;2022-10-17T09:49:00;100934.85;;;17.38;52.62
63663;BME280;49815;51.618;0.336;2022-10-17T09:51:20;100938.46;;;17.36;52.67
63663;BME280;49815;51.618;0.336;2022-10-17T09:53:48;100939.68;;;17.41;51.88
63663;BME280;49815;51.618;0.336;2022-10-17T09:56:13;100943.87;;;16.72;52.93
63663;BME280;49815;51.618;0.336;2022-10-17T09:58:40;100951.68;;;17.75;51.40
63663;BME280;49815;51.618;0.336;2022-10-17T10:03:26;100959.70;;;17.20;51.44
63663;BME280;49815;51.618;0.336;2022-10-17T10:06:00;100961.99;;;16.63;52.19
63663;BME280;49815;51.618;0.336;2022-10-17T10:08:18;100965.79;;;16.42;52.77
63663;BME280;49815;51.618;0.336;2022-10-17T10:10:43;100976.63;;;16.66;53.62
63663;BME280;49815;51.618;0.336;2022-10-17T10:13:15;100984.30;;;16.41;53.62
63663;BME280;49815;51.618;0.336;2022-10-17T10:15:35;100988.06;;;17.03;51.99
63663;BME280;49815;51.618;0.336;2022-10-17T10:17:58;100996.53;;;16.64;51.87
63663;BME280;49815;51.618;0.336;2022-10-17T10:20:27;100999.23;;;17.36;51.08
63663;BME280;49815;51.618;0.336;2022-10-17T10:25:16;101006.80;;;17.22;50.83
63663;BME280;49815;51.618;0.336;2022-10-17T10:27:40;101013.27;;;16.68;52.30
63663;BME280;49815;51.618;0.336;2022-10-17T10:30:05;101015.85;;;16.39;53.36
63663;BME280;49815;51.618;0.336;2022-10-17T10:32:32;101013.54;;;17.35;51.48
63663;BME280;49815;51.618;0.336;2022-10-17T10:34:57;101014.83;;;17.81;50.74
63663;BME280;49815;51.618;0.336;2022-10-17T10:37:22;101017.18;;;16.87;50.44
63663;BME280;49815;51.618;0.336;2022-10-17T10:39:47;101021.08;;;17.61;50.32
63663;BME280;49815;51.618;0.336;2022-10-17T10:42:19;101019.60;;;17.87;49.33
63663;BME280;49815;51.618;0.336;2022-10-17T10:44:37;101025.80;;;17.48;48.96
63663;BME280;49815;51.618;0.336;2022-10-17T10:49:29;101033.92;;;18.16;47.57
63663;BME280;49815;51.618;0.336;2022-10-17T10:51:52;101033.07;;;17.65;47.37
63663;BME280;49815;51.618;0.336;2022-10-17T10:54:21;101039.62;;;17.56;48.52
63663;BME280;49815;51.618;0.336;2022-10-17T10:56:46;101048.27;;;18.49;46.83
63663;BME280;49815;51.618;0.336;2022-10-17T10:59:19;101055.81;;;18.58;46.54
63663;BME280;49815;51.618;0.336;2022-10-17T11:01:41;101058.66;;;19.22;45.20
63663;BME280;49815;51.618;0.336;2022-10-17T11:04:06;101065.10;;;19.07;45.39
63663;BME280;49815;51.618;0.336;2022-10-17T11:06:28;101068.37;;;17.33;47.13
63663;BME280;49815;51.618;0.336;2022-10-17T11:09:00;101073.11;;;17.80;47.46
63663;BME280;49815;51.618;0.336;2022-10-17T11:11:22;101068.16;;;17.26;47.15
63663;BME280;49815;51.618;0.336;2022-10-17T11:13:45;101071.21;;;18.17;45.57
63663;BME280;49815;51.618;0.336;2022-10-17T11:16:17;101086.88;;;18.39;45.15
63663;BME280;49815;51.618;0.336;2022-10-17T11:18:34;101090.14;;;17.61;45.76
63663;BME280;49815;51.618;0.336;2022-10-17T11:21:02;101093.24;;;18.55;44.44
63663;BME280;49815;51.618;0.336;2022-10-17T11:23:26;101098.10;;;18.21;45.17
63663;BME280;49815;51.618;0.336;2022-10-17T11:25:48;101103.39;;;17.87;44.26
63663;BME280;49815;51.618;0.336;2022-10-17T11:28:14;101106.93;;;18.43;43.18
63663;BME280;49815;51.618;0.336;2022-10-17T11:30:43;101105.17;;;17.97;42.90
63663;BME280;49815;51.618;0.336;2022-10-17T11:33:03;101108.73;;;18.19;42.13
63663;BME280;49815;51.618;0.336;2022-10-17T11:35:30;101111.82;;;18.54;41.85
63663;BME280;49815;51.618;0.336;2022-10-17T11:38:05;101115.99;;;18.17;42.23
63663;BME280;49815;51.618;0.336;2022-10-17T11:40:20;101118.42;;;17.55;43.68
63663;BME280;49815;51.618;0.336;2022-10-17T11:42:50;101118.80;;;18.48;42.30
63663;BME280;49815;51.618;0.336;2022-10-17T11:45:17;101129.64;;;17.98;43.41
63663;BME280;49815;51.618;0.336;2022-10-17T11:47:38;101131.40;;;17.80;43.00
63663;BME280;49815;51.618;0.336;2022-10-17T11:50:04;101129.18;;;18.26;42.36
63663;BME280;49815;51.618;0.336;2022-10-17T11:52:32;101134.49;;;18.51;40.79
63663;BME280;49815;51.618;0.336;2022-10-17T11:54:52;101138.02;;;19.20;39.75
63663;BME280;49815;51.618;0.336;2022-10-17T11:59:52;101150.23;;;17.49;42.45
63663;BME280;49815;51.618;0.336;2022-10-17T12:02:10;101155.81;;;18.27;41.68
63663;BME280;49815;51.618;0.336;2022-10-17T12:04:39;101152.78;;;18.41;41.11
63663;BME280;49815;51.618;0.336;2022-10-17T12:07:07;101148.27;;;18.53;40.94
63663;BME280;49815;51.618;0.336;2022-10-17T12:09:26;101148.42;;;18.36;41.34
63663;BME280;49815;51.618;0.336;2022-10-17T12:11:49;101149.23;;;17.82;41.01
63663;BME280;49815;51.618;0.336;2022-10-17T12:16:43;101146.85;;;17.61;41.19
63663;BME280;49815;51.618;0.336;2022-10-17T12:19:19;101158.20;;;17.67;42.02
63663;BME280;49815;51.618;0.336;2022-10-17T12:21:27;101160.51;;;17.61;41.88
63663;BME280;49815;51.618;0.336;2022-10-17T12:23:53;101162.18;;;18.30;41.61
63663;BME280;49815;51.618;0.336;2022-10-17T12:26:24;101161.25;;;18.09;41.06
63663;BME280;49815;51.618;0.336;2022-10-17T12:28:44;101159.30;;;19.13;40.19
63663;BME280;49815;51.618;0.336;2022-10-17T12:31:09;101156.93;;;19.33;40.42
63663;BME280;49815;51.618;0.336;2022-10-17T12:33:36;101157.53;;;17.89;41.87
63663;BME280;49815;51.618;0.336;2022-10-17T12:38:26;101155.96;;;18.13;41.69
63663;BME280;49815;51.618;0.336;2022-10-17T12:40:54;101157.25;;;18.27;42.03
63663;BME280;49815;51.618;0.336;2022-10-17T12:45:47;101158.81;;;18.71;41.88
63663;BME280;49815;51.618;0.336;2022-10-17T12:48:08;101156.96;;;18.66;41.40
63663;BME280;49815;51.618;0.336;2022-10-17T12:53:02;101159.54;;;19.49;40.00
63663;BME280;49815;51.618;0.336;2022-10-17T12:55:23;101161.05;;;18.13;41.38
63663;BME280;49815;51.618;0.336;2022-10-17T12:57:50;101156.18;;;18.60;39.63
63663;BME280;49815;51.618;0.336;2022-10-17T13:00:17;101164.07;;;17.98;40.11
63663;BME280;49815;51.618;0.336;2022-10-17T13:02:36;101161.53;;;18.30;39.76